Time;durP1;ratioP1;P1;durP2;ratioP2;P2;SDS_P1;SDS_P2;PMS_P1;PMS_P2;Temp;Humidity;BMP_temperature;BMP_pressure;BME280_temperature;BME280_humidity;BME280_pressure;Samples;Min_cycle;Max_cycle;Signal;HPM_P1;HPM_P2
2023/09/13 00:01:42;;;;;;;2.10;1.40;;;22.00;1.00;;;;;;5117240;28;20510;-65
2023/09/13 00:04:10;;;;;;;1.70;1.10;;;21.90;1.00;;;;;;5117400;28;20689;-64
2023/09/13 00:06:37;;;;;;;1.92;1.13;;;21.80;1.00;;;;;;5117045;28;20424;-65
2023/09/13 00:09:06;;;;;;;1.60;1.00;;;21.80;1.00;;;;;;5117232;28;20427;-65
2023/09/13 00:11:33;;;;;;;2.00;1.10;;;21.70;1.00;;;;;;5117554;28;20436;-65
2023/09/13 00:14:00;;;;;;;3.20;1.17;;;21.70;1.00;;;;;;5116988;28;20416;-64
2023/09/13 00:16:29;;;;;;;1.90;1.10;;;21.70;1.00;;;;;;5117442;28;20458;-64
2023/09/13 00:18:56;;;;;;;2.00;1.10;;;21.70;1.00;;;;;;5117207;28;20428;-63
2023/09/13 00:21:23;;;;;;;3.05;1.10;;;21.70;1.00;;;;;;5117648;28;20835;-64
2023/09/13 00:23:50;;;;;;;2.30;1.10;;;21.60;1.00;;;;;;5117318;28;20426;-63
2023/09/13 00:26:17;;;;;;;1.60;1.00;;;21.60;1.00;;;;;;5117462;28;20895;-63
2023/09/13 00:28:45;;;;;;;3.17;1.10;;;21.60;1.00;;;;;;5117574;28;20404;-62
2023/09/13 00:31:13;;;;;;;2.10;1.30;;;21.60;1.00;;;;;;5117365;28;20435;-62
2023/09/13 00:33:41;;;;;;;2.95;1.25;;;21.40;1.00;;;;;;5116272;28;20858;-61
2023/09/13 00:36:09;;;;;;;2.53;1.30;;;21.40;1.00;;;;;;5116247;28;20854;-62
2023/09/13 00:38:36;;;;;;;2.30;1.30;;;21.30;14.80;;;;;;5116662;28;20450;-63
2023/09/13 00:41:03;;;;;;;2.35;1.40;;;21.30;31.40;;;;;;5116947;28;20408;-61
2023/09/13 00:43:30;;;;;;;2.00;1.20;;;21.20;57.30;;;;;;5117062;28;20412;-63
2023/09/13 00:45:58;;;;;;;2.20;1.60;;;21.20;81.20;;;;;;5117094;28;20424;-64
2023/09/13 00:48:26;;;;;;;2.35;1.27;;;21.20;95.30;;;;;;5116480;28;20428;-63
2023/09/13 00:50:55;;;;;;;2.45;1.30;;;21.10;99.90;;;;;;5116747;28;20464;-62
2023/09/13 00:53:22;;;;;;;1.63;1.10;;;20.90;97.00;;;;;;5116468;28;20419;-62
2023/09/13 00:55:51;;;;;;;2.40;1.30;;;20.80;99.90;;;;;;5116633;28;20417;-62
2023/09/13 00:58:19;;;;;;;1.80;1.27;;;20.70;99.90;;;;;;5116200;28;21071;-62
2023/09/13 01:00:47;;;;;;;2.03;1.20;;;20.80;99.90;;;;;;5115631;28;20835;-62
2023/09/13 01:03:17;;;;;;;1.90;1.27;;;21.00;99.90;;;;;;5116657;28;20422;-62
2023/09/13 01:05:45;;;;;;;1.80;1.40;;;21.10;99.90;;;;;;5116816;28;20712;-62
2023/09/13 01:08:13;;;;;;;1.88;1.38;;;20.90;99.90;;;;;;5116909;28;20408;-62
2023/09/13 01:10:41;;;;;;;2.00;1.40;;;21.00;99.90;;;;;;5116661;28;20428;-63
2023/09/13 01:13:08;;;;;;;2.20;1.45;;;20.90;99.90;;;;;;5116506;28;20427;-64
2023/09/13 01:15:41;;;;;;;1.80;1.23;;;20.90;99.90;;;;;;5116262;28;20424;-63
2023/09/13 01:18:14;;;;;;;3.30;1.40;;;21.00;99.90;;;;;;5116003;28;20427;-64
2023/09/13 01:21:09;;;;;;;3.50;1.30;;;20.90;99.90;;;;;;5116578;28;20416;-64
2023/09/13 01:24:07;;;;;;;3.95;1.40;;;21.00;99.90;;;;;;5116152;28;20427;-64
2023/09/13 01:26:50;;;;;;;1.90;1.20;;;21.10;99.90;;;;;;5116053;28;20430;-65
2023/09/13 01:29:21;;;;;;;1.80;1.27;;;21.10;99.90;;;;;;5116253;28;20716;-65
2023/09/13 01:31:48;;;;;;;1.83;1.20;;;21.00;99.90;;;;;;5116382;28;20428;-65
2023/09/13 01:34:15;;;;;;;2.00;1.30;;;21.00;99.90;;;;;;5115692;28;20420;-65
2023/09/13 01:36:42;;;;;;;1.88;1.20;;;21.00;99.90;;;;;;5114732;28;20862;-66
2023/09/13 01:39:09;;;;;;;2.00;1.20;;;20.90;99.90;;;;;;5114582;28;20427;-65
2023/09/13 01:41:40;;;;;;;1.90;1.10;;;20.80;99.90;;;;;;5114750;28;20919;-65
2023/09/13 01:44:08;;;;;;;1.58;1.20;;;20.80;99.90;;;;;;5114758;28;20882;-65
2023/09/13 01:46:42;;;;;;;2.83;1.10;;;20.70;99.90;;;;;;5114929;28;20837;-67
2023/09/13 01:49:12;;;;;;;1.67;1.08;;;20.60;99.90;;;;;;5115159;28;20428;-67
2023/09/13 01:51:40;;;;;;;2.00;0.90;;;20.60;99.90;;;;;;5114929;28;20436;-67
2023/09/13 01:54:07;;;;;;;2.20;0.98;;;20.60;99.90;;;;;;5115269;28;20420;-67
2023/09/13 01:56:34;;;;;;;1.33;0.98;;;20.60;99.90;;;;;;5116035;28;20767;-66
2023/09/13 01:59:02;;;;;;;2.35;1.00;;;20.60;99.90;;;;;;5115060;28;20427;-65
2023/09/13 02:01:29;;;;;;;1.50;1.00;;;20.50;99.90;;;;;;5114520;28;20404;-65
2023/09/13 02:03:57;;;;;;;2.90;1.00;;;20.40;99.90;;;;;;5115871;28;20493;-65
2023/09/13 02:06:24;;;;;;;1.60;1.00;;;20.40;99.90;;;;;;5115572;28;20630;-65
2023/09/13 02:08:52;;;;;;;1.80;1.00;;;20.40;99.90;;;;;;5115125;28;20420;-65
2023/09/13 02:11:19;;;;;;;1.40;1.00;;;20.40;99.90;;;;;;5114970;28;20459;-64
2023/09/13 02:13:46;;;;;;;1.27;0.90;;;20.20;99.90;;;;;;5115327;28;20727;-64
2023/09/13 02:16:13;;;;;;;1.70;1.10;;;20.10;99.90;;;;;;5115676;28;20480;-64
2023/09/13 02:18:40;;;;;;;2.20;1.00;;;20.00;99.90;;;;;;5115752;28;20712;-64
2023/09/13 02:21:09;;;;;;;2.10;1.00;;;19.90;99.90;;;;;;5115339;28;20412;-64
2023/09/13 02:23:37;;;;;;;1.63;0.90;;;19.90;99.90;;;;;;5115484;28;20430;-65
2023/09/13 02:26:04;;;;;;;2.00;0.90;;;20.00;99.90;;;;;;5115446;28;20408;-64
2023/09/13 02:28:31;;;;;;;2.05;0.90;;;20.30;97.40;;;;;;5115623;28;20415;-65
2023/09/13 02:30:58;;;;;;;1.80;1.00;;;20.40;90.20;;;;;;5115045;28;20428;-64
2023/09/13 02:33:25;;;;;;;1.30;0.90;;;20.50;97.20;;;;;;5115320;28;20734;-64
2023/09/13 02:35:52;;;;;;;1.55;0.80;;;20.50;96.80;;;;;;5115372;28;20426;-64
2023/09/13 02:38:21;;;;;;;2.50;0.80;;;20.40;81.40;;;;;;5114742;28;20906;-63
2023/09/13 02:40:49;;;;;;;2.22;1.08;;;20.40;99.90;;;;;;5114923;28;20847;-64
2023/09/13 02:43:16;;;;;;;1.95;0.90;;;20.40;99.90;;;;;;5114865;28;20897;-64
2023/09/13 02:45:44;;;;;;;1.75;0.90;;;20.30;99.90;;;;;;5114635;28;20420;-64
2023/09/13 02:48:11;;;;;;;2.70;0.90;;;20.10;99.90;;;;;;5115346;28;20428;-63
2023/09/13 02:50:41;;;;;;;1.60;0.90;;;20.20;99.90;;;;;;5114528;28;20716;-64
2023/09/13 02:53:08;;;;;;;1.70;0.90;;;20.20;99.90;;;;;;5114749;28;20427;-64
2023/09/13 02:55:37;;;;;;;2.85;1.00;;;20.10;99.90;;;;;;5115334;28;20486;-63
2023/09/13 02:58:05;;;;;;;1.20;0.90;;;19.90;99.90;;;;;;5115231;28;20432;-63
2023/09/13 03:00:33;;;;;;;1.80;0.90;;;19.90;99.90;;;;;;5114803;28;20433;-64
2023/09/13 03:03:00;;;;;;;1.20;0.85;;;19.70;99.90;;;;;;5113786;28;20853;-65
2023/09/13 03:05:27;;;;;;;1.50;1.00;;;19.80;99.90;;;;;;5115086;28;20420;-63
2023/09/13 03:07:56;;;;;;;1.60;0.90;;;19.80;99.90;;;;;;5113843;28;20431;-63
2023/09/13 03:10:24;;;;;;;1.80;1.00;;;19.80;99.90;;;;;;5115363;28;20515;-63
2023/09/13 03:12:53;;;;;;;2.38;1.10;;;19.90;99.90;;;;;;5116482;28;20416;-63
2023/09/13 03:15:20;;;;;;;1.60;1.10;;;19.80;99.90;;;;;;5117154;28;20427;-63
2023/09/13 03:17:47;;;;;;;2.10;1.20;;;19.70;99.90;;;;;;5116090;28;20712;-64
2023/09/13 03:20:14;;;;;;;2.10;1.10;;;19.60;99.90;;;;;;5114770;28;20416;-62
2023/09/13 03:22:41;;;;;;;2.30;1.27;;;19.70;99.90;;;;;;5116480;28;20560;-63
2023/09/13 03:25:09;;;;;;;2.10;1.30;;;19.60;99.90;;;;;;5117392;28;20471;-63
2023/09/13 03:27:36;;;;;;;2.08;1.20;;;19.60;99.90;;;;;;5118246;28;20430;-64
2023/09/13 03:30:06;;;;;;;1.70;1.10;;;19.60;99.90;;;;;;5117060;28;20416;-64
2023/09/13 03:32:33;;;;;;;1.50;1.00;;;19.70;99.90;;;;;;5117681;28;20530;-63
2023/09/13 03:35:00;;;;;;;1.40;0.93;;;19.90;99.90;;;;;;5115555;28;20416;-64
2023/09/13 03:37:27;;;;;;;2.20;1.25;;;19.90;99.90;;;;;;5115967;28;20412;-63
2023/09/13 03:39:54;;;;;;;1.95;1.33;;;19.90;99.90;;;;;;5116829;28;20424;-63
2023/09/13 03:42:21;;;;;;;1.95;1.20;;;19.80;99.90;;;;;;5115505;28;20699;-63
2023/09/13 03:44:48;;;;;;;1.87;1.23;;;19.70;99.90;;;;;;5115581;28;20687;-63
2023/09/13 03:47:17;;;;;;;3.00;1.40;;;19.90;99.90;;;;;;5116083;28;20446;-63
2023/09/13 03:49:44;;;;;;;2.67;1.40;;;19.90;99.90;;;;;;5116753;28;20731;-63
2023/09/13 03:52:11;;;;;;;2.90;1.13;;;20.10;99.90;;;;;;5116145;28;20432;-64
2023/09/13 03:54:38;;;;;;;2.17;1.10;;;20.20;99.90;;;;;;5116766;28;20427;-64
2023/09/13 03:57:06;;;;;;;2.00;1.00;;;20.20;99.90;;;;;;5117481;28;20443;-65
2023/09/13 03:59:33;;;;;;;2.00;1.17;;;20.10;99.90;;;;;;5117793;28;20727;-64
2023/09/13 04:02:00;;;;;;;2.70;1.30;;;20.00;99.90;;;;;;5116501;28;20507;-62
2023/09/13 04:04:28;;;;;;;2.60;1.25;;;19.80;99.90;;;;;;5115395;28;20416;-63
2023/09/13 04:06:56;;;;;;;1.70;1.30;;;19.70;99.90;;;;;;5115093;28;20862;-64
2023/09/13 04:09:23;;;;;;;1.80;1.20;;;19.60;99.90;;;;;;5115319;28;20427;-64
2023/09/13 04:11:49;;;;;;;1.88;1.15;;;19.70;99.90;;;;;;5115694;28;20428;-63
2023/09/13 04:14:16;;;;;;;1.80;1.30;;;19.80;99.90;;;;;;5115421;28;20412;-64
2023/09/13 04:16:43;;;;;;;1.92;1.20;;;19.80;99.90;;;;;;5116287;28;20819;-64
2023/09/13 04:19:10;;;;;;;4.18;1.30;;;19.90;99.90;;;;;;5115769;28;20416;-64
2023/09/13 04:21:39;;;;;;;2.92;1.30;;;19.90;99.90;;;;;;5116448;28;20428;-63
2023/09/13 04:24:07;;;;;;;2.83;1.30;;;19.80;99.90;;;;;;5115841;28;20831;-63
2023/09/13 04:26:34;;;;;;;2.25;1.25;;;19.90;99.90;;;;;;5117601;28;20424;-63
2023/09/13 04:29:02;;;;;;;1.80;1.20;;;19.90;99.90;;;;;;5115675;28;20416;-62
2023/09/13 04:31:30;;;;;;;2.63;1.23;;;19.70;99.90;;;;;;5109180;28;20494;-64
2023/09/13 04:33:57;;;;;;;2.50;1.20;;;19.70;99.90;;;;;;5107638;28;20431;-63
2023/09/13 04:36:24;;;;;;;1.90;1.10;;;19.60;99.90;;;;;;5115092;28;20843;-63
2023/09/13 04:38:53;;;;;;;1.98;1.20;;;19.70;99.90;;;;;;5113990;28;20420;-63
2023/09/13 04:41:20;;;;;;;1.95;1.10;;;19.80;99.90;;;;;;5113782;28;20710;-63
2023/09/13 04:43:47;;;;;;;1.58;1.10;;;19.80;99.90;;;;;;5114911;28;20423;-63
2023/09/13 04:46:14;;;;;;;1.63;1.10;;;19.70;99.90;;;;;;5115295;28;20495;-63
2023/09/13 04:48:41;;;;;;;3.00;1.40;;;19.70;99.90;;;;;;5114854;28;20454;-63
2023/09/13 04:51:10;;;;;;;2.10;1.20;;;19.80;99.90;;;;;;5114547;28;20828;-62
2023/09/13 04:53:37;;;;;;;2.20;1.20;;;19.90;99.90;;;;;;5110371;28;20422;-64
2023/09/13 04:56:06;;;;;;;1.60;1.10;;;19.90;99.90;;;;;;5111295;28;20416;-63
2023/09/13 04:58:33;;;;;;;2.70;1.10;;;19.90;99.90;;;;;;5108275;28;20436;-65
2023/09/13 05:01:00;;;;;;;1.67;1.10;;;20.00;99.90;;;;;;5103545;28;20420;-64
2023/09/13 05:03:27;;;;;;;2.30;1.00;;;20.10;99.90;;;;;;5113540;28;20800;-65
2023/09/13 05:05:56;;;;;;;1.73;0.93;;;20.10;99.90;;;;;;5107116;28;20425;-64
2023/09/13 05:08:23;;;;;;;2.30;1.10;;;20.10;99.90;;;;;;5111574;28;20429;-63
2023/09/13 05:10:52;;;;;;;1.63;0.90;;;20.10;99.90;;;;;;5108685;28;20734;-64
2023/09/13 05:13:20;;;;;;;1.50;0.90;;;20.10;99.90;;;;;;5106407;28;20437;-65
2023/09/13 05:15:48;;;;;;;1.58;0.90;;;20.20;99.90;;;;;;5105775;28;20424;-66
2023/09/13 05:18:15;;;;;;;1.30;0.80;;;20.30;99.90;;;;;;5105983;28;20418;-64
2023/09/13 05:20:42;;;;;;;1.10;0.80;;;20.30;99.90;;;;;;5108795;28;20426;-64
2023/09/13 05:23:09;;;;;;;2.45;0.88;;;20.30;99.90;;;;;;5111606;28;20491;-64
2023/09/13 05:25:43;;;;;;;1.67;0.80;;;20.30;99.90;;;;;;5107125;28;20474;-64
2023/09/13 05:28:11;;;;;;;2.10;0.90;;;20.50;99.90;;;;;;5104631;28;20431;-64
2023/09/13 05:30:39;;;;;;;1.90;0.80;;;20.70;99.90;;;;;;5105271;28;20422;-64
2023/09/13 05:33:06;;;;;;;2.20;0.80;;;20.60;99.90;;;;;;5113903;28;20428;-64
2023/09/13 05:35:35;;;;;;;2.60;0.80;;;20.60;99.90;;;;;;5109404;28;20417;-64
2023/09/13 05:38:02;;;;;;;1.20;0.80;;;20.80;99.90;;;;;;5110512;28;20416;-63
2023/09/13 05:40:29;;;;;;;1.55;0.90;;;21.00;99.90;;;;;;5104544;28;20415;-64
2023/09/13 05:42:56;;;;;;;1.80;0.90;;;21.10;99.90;;;;;;5106178;28;20427;-64
2023/09/13 05:45:24;;;;;;;1.10;0.90;;;21.20;99.90;;;;;;5104749;28;20527;-64
2023/09/13 05:47:52;;;;;;;1.60;0.80;;;21.20;99.90;;;;;;5105626;28;20780;-64
2023/09/13 05:50:19;;;;;;;1.33;0.80;;;21.10;99.90;;;;;;5110104;28;20418;-64
2023/09/13 05:52:47;;;;;;;1.30;0.80;;;21.00;99.90;;;;;;5107780;28;20432;-64
2023/09/13 05:55:14;;;;;;;1.30;0.80;;;21.10;99.90;;;;;;5104574;28;20420;-64
2023/09/13 05:57:41;;;;;;;1.38;0.80;;;20.90;99.90;;;;;;5103656;28;20424;-64
2023/09/13 06:00:09;;;;;;;1.50;0.80;;;20.70;99.90;;;;;;5102356;28;20868;-64
2023/09/13 06:02:37;;;;;;;1.30;0.80;;;20.80;99.90;;;;;;5106134;28;20418;-64
2023/09/13 06:05:09;;;;;;;1.10;0.80;;;20.80;99.90;;;;;;5107797;28;20696;-64
2023/09/13 06:07:36;;;;;;;1.40;0.80;;;20.60;99.90;;;;;;5105516;28;20974;-63
2023/09/13 06:10:03;;;;;;;1.08;0.80;;;20.60;99.90;;;;;;5099831;28;20524;-62
2023/09/13 06:12:31;;;;;;;1.25;0.80;;;20.50;99.90;;;;;;5099799;28;20739;-62
2023/09/13 06:14:59;;;;;;;1.20;0.80;;;20.50;99.90;;;;;;5099460;28;20482;-62
2023/09/13 06:17:26;;;;;;;1.25;0.80;;;20.50;99.90;;;;;;5094898;28;20465;-62
2023/09/13 06:19:53;;;;;;;1.20;0.90;;;20.50;99.90;;;;;;5102481;28;20412;-62
2023/09/13 06:22:22;;;;;;;1.58;0.80;;;20.40;99.90;;;;;;5097586;28;20529;-62
2023/09/13 06:24:50;;;;;;;1.20;0.80;;;20.70;99.90;;;;;;5098979;28;20514;-62
2023/09/13 06:27:17;;;;;;;1.00;0.70;;;20.80;99.90;;;;;;5100383;28;20422;-62
2023/09/13 06:29:45;;;;;;;1.40;0.80;;;20.70;99.90;;;;;;5103541;28;20422;-62
2023/09/13 06:32:12;;;;;;;1.40;0.90;;;20.70;99.90;;;;;;5106636;28;20420;-61
2023/09/13 06:34:39;;;;;;;1.00;0.70;;;20.70;99.90;;;;;;5108289;28;20811;-62
2023/09/13 06:37:06;;;;;;;1.27;0.80;;;20.60;99.90;;;;;;5101257;28;20420;-61
2023/09/13 06:39:35;;;;;;;1.10;0.80;;;20.80;99.90;;;;;;5096782;28;20873;-62
2023/09/13 06:42:02;;;;;;;1.10;0.70;;;20.80;99.90;;;;;;5108669;28;20404;-62
2023/09/13 06:44:29;;;;;;;1.20;0.80;;;20.90;99.90;;;;;;5110346;28;20433;-63
2023/09/13 06:46:57;;;;;;;3.77;1.00;;;20.90;99.90;;;;;;5102820;28;20430;-62
2023/09/13 06:49:24;;;;;;;1.00;0.80;;;20.90;99.90;;;;;;5105298;28;20411;-62
2023/09/13 06:51:52;;;;;;;1.55;0.77;;;21.00;99.90;;;;;;5107769;28;20923;-62
2023/09/13 06:54:19;;;;;;;1.10;0.70;;;20.90;99.90;;;;;;5110747;28;20824;-61
2023/09/13 06:56:48;;;;;;;1.15;0.70;;;20.90;99.90;;;;;;5111061;28;20409;-62
2023/09/13 06:59:15;;;;;;;1.20;0.70;;;21.00;99.90;;;;;;5107678;28;20424;-62
2023/09/13 07:01:42;;;;;;;1.02;0.70;;;21.20;99.90;;;;;;5108224;28;20472;-62
2023/09/13 07:04:10;;;;;;;1.20;0.70;;;21.40;99.90;;;;;;5105366;28;20777;-62
2023/09/13 07:06:37;;;;;;;1.60;0.70;;;21.60;99.90;;;;;;5108483;28;20422;-61
2023/09/13 07:09:04;;;;;;;2.70;0.70;;;21.60;99.90;;;;;;5113170;28;20537;-62
2023/09/13 07:11:31;;;;;;;0.90;0.67;;;21.60;99.90;;;;;;5106482;28;20415;-63
2023/09/13 07:14:00;;;;;;;1.00;0.70;;;21.40;99.90;;;;;;5103715;28;20579;-63
2023/09/13 07:16:27;;;;;;;1.05;0.70;;;21.30;99.90;;;;;;5103266;28;20427;-62
2023/09/13 07:18:55;;;;;;;1.30;0.70;;;21.40;99.90;;;;;;5105709;28;21154;-63
2023/09/13 07:21:22;;;;;;;0.90;0.60;;;21.30;99.90;;;;;;5111892;28;20438;-63
2023/09/13 07:23:51;;;;;;;1.70;0.70;;;21.30;99.90;;;;;;5110951;27;20881;-64
2023/09/13 07:26:18;;;;;;;1.10;0.80;;;21.30;99.90;;;;;;5102349;27;20432;-64
2023/09/13 07:28:45;;;;;;;1.10;0.80;;;21.10;99.90;;;;;;5090417;28;20445;-65
2023/09/13 07:31:14;;;;;;;1.23;0.70;;;21.10;99.90;;;;;;5101083;27;20841;-65
2023/09/13 07:33:41;;;;;;;1.52;0.80;;;21.10;99.90;;;;;;5124888;27;20439;-64
2023/09/13 07:36:08;;;;;;;1.30;0.82;;;21.00;99.90;;;;;;5110228;27;20511;-63
2023/09/13 07:38:37;;;;;;;1.27;0.68;;;21.10;99.90;;;;;;5110211;27;21664;-64
2023/09/13 07:41:05;;;;;;;2.30;0.70;;;21.20;99.90;;;;;;5116217;27;20430;-64
2023/09/13 07:43:32;;;;;;;1.20;0.70;;;21.30;99.90;;;;;;5131823;27;20620;-63
2023/09/13 07:45:59;;;;;;;1.60;0.90;;;21.30;99.90;;;;;;5129947;27;20434;-63
2023/09/13 07:48:28;;;;;;;1.80;0.80;;;21.30;99.90;;;;;;5128813;27;20529;-63
2023/09/13 07:50:55;;;;;;;1.00;0.70;;;21.30;99.90;;;;;;5113463;27;20436;-65
2023/09/13 07:53:23;;;;;;;1.60;0.80;;;21.50;99.90;;;;;;5094420;28;20437;-64
2023/09/13 07:55:50;;;;;;;1.35;0.80;;;21.40;99.90;;;;;;5132821;27;20681;-65
2023/09/13 07:58:17;;;;;;;1.10;0.70;;;21.50;99.90;;;;;;5130889;27;20426;-64
2023/09/13 08:00:45;;;;;;;1.40;0.70;;;21.40;99.90;;;;;;5126747;27;21018;-65
2023/09/13 08:03:12;;;;;;;0.95;0.70;;;21.60;99.90;;;;;;5114263;27;20727;-63
2023/09/13 08:05:42;;;;;;;1.17;0.75;;;21.70;99.90;;;;;;5125934;27;20513;-64
2023/09/13 08:08:09;;;;;;;1.10;0.70;;;21.90;99.90;;;;;;5134283;27;20430;-65
2023/09/13 08:10:40;;;;;;;1.23;0.70;;;22.10;99.90;;;;;;5129843;27;20418;-65
2023/09/13 08:13:07;;;;;;;1.10;0.70;;;22.10;99.90;;;;;;5132211;27;20458;-64
2023/09/13 08:15:35;;;;;;;1.10;0.68;;;22.00;99.90;;;;;;5125799;27;20479;-64
2023/09/13 08:18:04;;;;;;;2.42;0.77;;;21.90;99.90;;;;;;5123009;27;20445;-64
2023/09/13 08:20:31;;;;;;;1.00;0.70;;;22.00;99.90;;;;;;5113171;27;20723;-65
2023/09/13 08:22:59;;;;;;;1.00;0.77;;;22.10;99.90;;;;;;5121435;27;20426;-63
2023/09/13 08:25:27;;;;;;;1.60;0.60;;;22.00;99.90;;;;;;5118622;27;20932;-63
2023/09/13 08:27:54;;;;;;;1.70;0.63;;;22.00;99.90;;;;;;5113602;27;20440;-65
2023/09/13 08:30:21;;;;;;;1.13;0.60;;;22.20;99.90;;;;;;5128608;27;20430;-64
2023/09/13 08:32:48;;;;;;;0.98;0.60;;;22.30;99.90;;;;;;5128237;27;20455;-64
2023/09/13 08:35:15;;;;;;;2.70;0.60;;;22.20;99.90;;;;;;5116804;27;20422;-63
2023/09/13 08:37:42;;;;;;;1.10;0.70;;;22.20;99.90;;;;;;5108063;27;20427;-61
2023/09/13 08:40:12;;;;;;;1.20;0.60;;;22.30;99.90;;;;;;5114116;27;20442;-60
2023/09/13 08:42:41;;;;;;;1.00;0.60;;;22.30;99.90;;;;;;5118634;27;20467;-60
2023/09/13 08:45:09;;;;;;;0.88;0.60;;;22.30;99.90;;;;;;5091609;28;20437;-60
2023/09/13 08:47:38;;;;;;;1.20;0.60;;;22.30;99.90;;;;;;5090557;28;20433;-60
2023/09/13 08:50:08;;;;;;;0.90;0.60;;;22.10;99.90;;;;;;5093691;28;20940;-61
2023/09/13 08:52:36;;;;;;;0.80;0.50;;;22.00;99.90;;;;;;5100110;28;20868;-61
2023/09/13 08:55:04;;;;;;;1.10;0.70;;;22.10;99.90;;;;;;5100380;28;20439;-62
2023/09/13 08:57:34;;;;;;;0.80;0.60;;;21.90;99.90;;;;;;5092845;28;20437;-61
2023/09/13 09:00:01;;;;;;;0.90;0.60;;;21.70;99.90;;;;;;5100311;28;20534;-61
2023/09/13 09:02:31;;;;;;;0.75;0.50;;;21.90;99.90;;;;;;5083241;28;20491;-64
2023/09/13 09:05:00;;;;;;;0.80;0.57;;;22.00;99.90;;;;;;5091028;28;21135;-61
2023/09/13 09:07:29;;;;;;;0.80;0.60;;;22.10;99.90;;;;;;5097072;28;20733;-61
2023/09/13 09:09:58;;;;;;;1.20;0.60;;;22.00;99.90;;;;;;5093861;28;20451;-62
2023/09/13 09:12:27;;;;;;;0.80;0.50;;;22.00;99.90;;;;;;5088402;28;20438;-61
2023/09/13 09:14:57;;;;;;;0.90;0.60;;;22.00;1.00;;;;;;5098720;28;20545;-62
2023/09/13 09:17:26;;;;;;;0.85;0.60;;;22.10;1.00;;;;;;5092886;28;20442;-62
2023/09/13 09:19:54;;;;;;;1.20;0.60;;;22.10;99.90;;;;;;5091447;28;20519;-62
2023/09/13 09:22:23;;;;;;;1.88;0.70;;;22.20;99.90;;;;;;5098489;28;21031;-62
2023/09/13 09:24:50;;;;;;;0.90;0.60;;;22.20;99.90;;;;;;5092550;28;20437;-62
2023/09/13 09:27:17;;;;;;;1.70;0.70;;;22.10;99.90;;;;;;5092029;28;20460;-62
2023/09/13 09:29:46;;;;;;;0.90;0.60;;;22.20;99.90;;;;;;5091511;28;20422;-62
2023/09/13 09:32:16;;;;;;;0.77;0.60;;;22.10;99.90;;;;;;5091113;28;20433;-60
2023/09/13 09:34:43;;;;;;;0.90;0.60;;;22.20;99.90;;;;;;5091682;28;20429;-60
2023/09/13 09:37:11;;;;;;;1.50;0.70;;;21.80;99.90;;;;;;5092881;28;20491;-63
2023/09/13 09:39:40;;;;;;;1.10;0.60;;;21.60;1.00;;;;;;5091443;28;20445;-63
2023/09/13 09:42:07;;;;;;;1.00;0.68;;;21.50;1.00;;;;;;5107108;28;20428;-62
2023/09/13 09:44:35;;;;;;;1.00;0.70;;;21.70;1.00;;;;;;5093297;28;20504;-62
2023/09/13 09:47:02;;;;;;;0.90;0.60;;;21.80;1.00;;;;;;5098482;28;20440;-63
2023/09/13 09:49:33;;;;;;;0.90;0.70;;;22.00;1.00;;;;;;5088611;28;21725;-65
2023/09/13 09:52:00;;;;;;;0.90;0.68;;;22.20;1.00;;;;;;5089849;28;20541;-64
2023/09/13 09:54:28;;;;;;;1.40;0.60;;;22.00;1.00;;;;;;5091380;28;20867;-63
2023/09/13 09:56:55;;;;;;;0.90;0.60;;;22.00;1.00;;;;;;5095164;28;20532;-63
2023/09/13 09:59:27;;;;;;;0.80;0.60;;;21.60;1.00;;;;;;5091705;28;20436;-63
2023/09/13 10:01:58;;;;;;;0.85;0.60;;;21.40;1.00;;;;;;5102407;28;20435;-63
2023/09/13 10:04:25;;;;;;;0.90;0.60;;;21.40;1.00;;;;;;5091025;28;20425;-63
2023/09/13 10:07:03;;;;;;;0.90;0.60;;;21.50;1.00;;;;;;5096602;28;21003;-63
2023/09/13 10:09:40;;;;;;;0.90;0.60;;;21.60;1.00;;;;;;5093450;28;20966;-63
2023/09/13 10:12:09;;;;;;;0.80;0.50;;;21.40;1.00;;;;;;5088033;28;20516;-62
2023/09/13 10:14:37;;;;;;;1.20;0.50;;;21.60;1.00;;;;;;5087463;28;20430;-62
2023/09/13 10:17:05;;;;;;;0.83;0.40;;;21.70;1.00;;;;;;5090215;28;20441;-62
2023/09/13 10:19:33;;;;;;;0.90;0.60;;;21.90;1.00;;;;;;5089079;28;20860;-62
2023/09/13 10:22:02;;;;;;;0.80;0.60;;;21.90;1.00;;;;;;5087204;28;20452;-63
2023/09/13 10:24:36;;;;;;;2.00;0.55;;;22.00;1.00;;;;;;5088942;28;20433;-63
2023/09/13 10:27:07;;;;;;;1.10;0.50;;;22.10;1.00;;;;;;5093529;28;20431;-63
2023/09/13 10:29:41;;;;;;;1.23;0.50;;;21.90;1.00;;;;;;5089271;28;20433;-63
2023/09/13 10:32:09;;;;;;;0.90;0.50;;;21.90;1.00;;;;;;5069640;28;20450;-63
2023/09/13 10:34:39;;;;;;;0.93;0.57;;;21.90;1.00;;;;;;5086452;28;20429;-64
2023/09/13 10:37:13;;;;;;;0.90;0.60;;;21.90;1.00;;;;;;5090412;28;20440;-63
2023/09/13 10:39:46;;;;;;;0.90;0.60;;;21.70;1.00;;;;;;5082873;28;20522;-63
2023/09/13 10:42:14;;;;;;;1.10;0.60;;;21.80;1.00;;;;;;5086945;28;20436;-62
2023/09/13 10:44:43;;;;;;;1.50;0.60;;;21.80;1.00;;;;;;5087078;28;20925;-62
2023/09/13 10:47:11;;;;;;;1.30;0.60;;;21.70;1.00;;;;;;5085831;28;20438;-62
2023/09/13 10:49:39;;;;;;;0.87;0.60;;;21.80;1.00;;;;;;5092379;28;20932;-63
2023/09/13 10:52:08;;;;;;;1.00;0.80;;;21.90;1.00;;;;;;5093873;28;20522;-62
2023/09/13 10:54:37;;;;;;;0.90;0.60;;;22.00;1.00;;;;;;5075965;28;20539;-63
2023/09/13 10:57:06;;;;;;;1.30;0.60;;;22.10;1.00;;;;;;5086634;28;20425;-64
2023/09/13 10:59:35;;;;;;;0.90;0.67;;;22.00;1.00;;;;;;5084057;28;20428;-64
2023/09/13 11:02:04;;;;;;;1.08;0.50;;;21.90;1.00;;;;;;5098369;28;20421;-66
2023/09/13 11:04:32;;;;;;;0.90;0.60;;;22.10;1.00;;;;;;5089431;28;20442;-65
2023/09/13 11:07:01;;;;;;;1.00;0.70;;;22.20;1.00;;;;;;5088447;28;20855;-66
2023/09/13 11:09:31;;;;;;;0.90;0.60;;;22.20;1.00;;;;;;5069560;28;20443;-67
2023/09/13 11:11:59;;;;;;;1.10;0.70;;;22.20;1.00;;;;;;5090202;28;20430;-67
2023/09/13 11:14:28;;;;;;;1.20;0.60;;;22.40;1.00;;;;;;5090116;28;20436;-66
2023/09/13 11:16:57;;;;;;;0.90;0.60;;;22.70;1.00;;;;;;5080053;28;20862;-66
2023/09/13 11:19:28;;;;;;;0.90;0.60;;;23.00;99.90;;;;;;5098737;28;20693;-66
2023/09/13 11:22:00;;;;;;;0.80;0.60;;;23.30;99.90;;;;;;5103293;28;20439;-65
2023/09/13 11:24:40;;;;;;;0.90;0.60;;;23.50;99.90;;;;;;5081154;28;20430;-66
2023/09/13 11:27:13;;;;;;;0.90;0.60;;;23.40;99.90;;;;;;5092272;28;20441;-66
2023/09/13 11:29:44;;;;;;;0.90;0.60;;;23.60;99.90;;;;;;5084075;28;20478;-66
2023/09/13 11:32:18;;;;;;;1.10;0.60;;;23.70;99.90;;;;;;5095945;28;20441;-67
2023/09/13 11:34:46;;;;;;;1.00;0.60;;;23.50;99.90;;;;;;5096998;28;20450;-66
2023/09/13 11:37:14;;;;;;;1.20;0.60;;;23.50;99.90;;;;;;5092369;28;20463;-66
2023/09/13 11:39:43;;;;;;;1.70;0.70;;;23.30;99.90;;;;;;5101110;28;20432;-65
2023/09/13 11:42:11;;;;;;;1.17;0.70;;;23.40;99.90;;;;;;5103855;28;20493;-66
2023/09/13 11:44:39;;;;;;;1.00;0.60;;;23.20;99.90;;;;;;5089197;28;20429;-66
2023/09/13 11:47:12;;;;;;;1.00;0.68;;;23.00;99.90;;;;;;5075555;28;20447;-67
2023/09/13 11:49:42;;;;;;;0.90;0.60;;;22.90;99.90;;;;;;5091610;28;20441;-65
2023/09/13 11:52:10;;;;;;;0.80;0.60;;;23.00;99.90;;;;;;5084504;28;20522;-67
2023/09/13 11:57:52;;;;;;;1.00;0.70;;;23.40;99.90;;;;;;5103768;27;20404;-67
2023/09/13 12:00:22;;;;;;;1.05;0.70;;;23.90;99.90;;;;;;5094470;28;20463;-66
2023/09/13 12:02:49;;;;;;;1.90;0.60;;;24.00;99.90;;;;;;5101345;28;20431;-65
2023/09/13 12:05:17;;;;;;;1.10;0.60;;;24.00;99.90;;;;;;5098515;28;20430;-64
2023/09/13 12:07:44;;;;;;;1.10;0.50;;;24.30;99.90;;;;;;5091993;28;20457;-63
2023/09/13 12:10:12;;;;;;;0.80;0.50;;;24.30;99.90;;;;;;5108631;28;20516;-64
2023/09/13 12:12:41;;;;;;;1.40;0.70;;;24.60;99.90;;;;;;5105543;28;20530;-64
2023/09/13 12:15:14;;;;;;;0.70;0.50;;;24.70;99.90;;;;;;5099145;28;21129;-65
2023/09/13 12:17:41;;;;;;;0.90;0.57;;;24.70;99.90;;;;;;5088223;28;20904;-64
2023/09/13 12:20:10;;;;;;;0.98;0.68;;;24.80;99.90;;;;;;5105666;28;20429;-65
2023/09/13 12:22:39;;;;;;;1.08;0.60;;;24.70;99.90;;;;;;5108022;28;20426;-63
2023/09/13 12:25:10;;;;;;;1.10;0.50;;;24.90;99.90;;;;;;5109652;27;20852;-63
2023/09/13 12:27:38;;;;;;;1.50;0.60;;;25.00;99.90;;;;;;5106963;28;20420;-64
2023/09/13 12:30:07;;;;;;;0.90;0.50;;;25.20;99.90;;;;;;5108925;28;20759;-64
2023/09/13 12:32:35;;;;;;;1.17;0.60;;;25.50;99.90;;;;;;5105778;28;20433;-64
2023/09/13 12:35:05;;;;;;;1.00;0.60;;;25.40;99.90;;;;;;5105910;28;20491;-65
2023/09/13 12:37:32;;;;;;;1.30;0.50;;;25.50;99.90;;;;;;5109384;27;20818;-65
2023/09/13 12:39:59;;;;;;;1.52;0.60;;;25.50;99.90;;;;;;5106548;27;20507;-63
2023/09/13 12:42:27;;;;;;;1.10;0.60;;;25.50;99.90;;;;;;5108391;28;20429;-65
2023/09/13 12:44:54;;;;;;;0.93;0.50;;;25.50;99.90;;;;;;5106370;28;20853;-65
2023/09/13 12:47:21;;;;;;;1.42;0.60;;;25.60;99.90;;;;;;5103332;28;20500;-65
2023/09/13 12:49:51;;;;;;;1.00;0.60;;;25.70;99.90;;;;;;5107756;28;20471;-64
2023/09/13 12:52:18;;;;;;;0.90;0.60;;;25.70;99.90;;;;;;5103391;28;20544;-65
2023/09/13 12:54:45;;;;;;;1.10;0.60;;;25.60;99.90;;;;;;5102547;28;20421;-65
2023/09/13 12:57:13;;;;;;;2.00;0.60;;;25.80;99.90;;;;;;5102199;28;20433;-65